Gleason, Arkansas
Current Conditions -  °F | °C
As of 5:58 AM on Saturday 20 Dec 2014 (Local Time) from KLRF Reporting Station
Overcast Overcast  
Wind Chill: 39°   Ceiling: 5500
Heat Index: 39°   Visibility: 10mi
Dew Point: 35°   Wind: 2mph
Humidity: 86%   Direction: 10°N
Pressure: 30.25"   Gusts: NA
Location:  35.0822°N, 92.366°W
Report Text: KLRF 201158Z AUTO 01002KT 10SM OVC055 04/02 A3025 RMK AO2 SLP248 70002 T00390018 10041 20039 53006
Loading
Personal Weather Stations






























Interactive Weather Map New forecast layout! Learn more

10-Day Weather Forecast

Advertisements
Track Severe Weather on mobile